Time;durP1;ratioP1;P1;durP2;ratioP2;P2;SDS_P1;SDS_P2;PMS_P1;PMS_P2;Temp;Humidity;BMP_temperature;BMP_pressure;BME280_temperature;BME280_humidity;BME280_pressure;Samples;Min_cycle;Max_cycle;Signal;HPM_P1;HPM_P2
2022/04/12 00:00:41;;;;;;;;;5.00;5.00;;;;;15.72;53.15;99879.13;5075338;28;45699;-64
2022/04/12 00:03:07;;;;;;;;;4.33;4.33;;;;;15.72;53.83;99881.78;5075610;27;45457;-63
2022/04/12 00:05:34;;;;;;;;;5.00;5.00;;;;;15.70;53.48;99873.06;5075622;27;45406;-63
2022/04/12 00:08:00;;;;;;;;;6.33;5.33;;;;;15.67;53.56;99870.59;5075578;27;45456;-64
2022/04/12 00:10:27;;;;;;;;;7.00;6.00;;;;;15.68;53.66;99875.81;5075717;27;45457;-63
2022/04/12 00:12:53;;;;;;;;;6.67;6.67;;;;;15.67;53.88;99871.44;5075909;27;46754;-63
2022/04/12 00:15:18;;;;;;;;;4.67;4.00;;;;;15.66;53.50;99872.41;5075468;27;45400;-65
2022/04/12 00:20:28;;;;;;;;;4.00;4.00;;;;;15.61;54.03;99871.88;5075409;28;45401;-66
2022/04/12 00:22:59;;;;;;;;;5.00;5.00;;;;;15.60;53.44;99872.81;5075062;27;45964;-63
2022/04/12 00:25:26;;;;;;;;;4.00;4.00;;;;;15.60;54.15;99878.09;5075149;27;45395;-65
2022/04/12 00:27:54;;;;;;;;;4.00;4.00;;;;;15.55;54.26;99874.06;5075436;27;45409;-65
2022/04/12 00:30:20;;;;;;;;;6.33;5.33;;;;;15.56;54.16;99881.94;5075162;27;45651;-65
2022/04/12 00:32:46;;;;;;;;;3.33;3.33;;;;;15.49;54.53;99879.78;5075051;27;46531;-65
2022/04/12 00:35:12;;;;;;;;;4.67;4.67;;;;;15.46;54.40;99879.03;5090860;27;45397;-66
2022/04/12 00:37:38;;;;;;;;;6.33;6.00;;;;;15.43;54.26;99873.94;5075367;27;45471;-66
2022/04/12 00:40:04;;;;;;;;;4.00;4.00;;;;;15.40;54.82;99874.16;5075260;27;45449;-62
2022/04/12 00:42:31;;;;;;;;;5.00;4.00;;;;;15.31;55.26;99864.16;5075056;27;46207;-62
2022/04/12 00:44:56;;;;;;;;;4.33;4.33;;;;;15.33;55.87;99859.63;5074848;27;45521;-62
2022/04/12 00:47:22;;;;;;;;;5.33;5.33;;;;;15.31;55.88;99858.88;5075161;27;45612;-63
2022/04/12 00:49:47;;;;;;;;;5.67;5.67;;;;;15.20;56.02;99845.50;5076344;27;45399;-64
2022/04/12 00:52:13;;;;;;;;;5.33;5.33;;;;;15.25;55.31;99857.47;5077110;28;45385;-65
2022/04/12 00:54:40;;;;;;;;;4.33;4.33;;;;;15.21;55.67;99845.41;5078543;28;45490;-63
2022/04/12 00:57:06;;;;;;;;;5.67;5.67;;;;;15.20;55.43;99846.34;5078467;27;45428;-64
2022/04/12 00:59:32;;;;;;;;;6.00;6.00;;;;;15.17;55.80;99849.19;5078005;27;45459;-65
2022/04/12 01:01:58;;;;;;;;;4.00;4.00;;;;;15.15;55.95;99856.41;5078337;27;45449;-63
2022/04/12 01:04:23;;;;;;;;;3.00;3.00;;;;;15.12;56.19;99851.28;5078264;27;45466;-63
2022/04/12 01:06:50;;;;;;;;;5.33;5.33;;;;;15.10;56.25;99847.03;5078508;28;45382;-64
2022/04/12 01:09:17;;;;;;;;;4.33;4.33;;;;;15.10;55.40;99836.44;5078484;27;45428;-64
2022/04/12 01:11:47;;;;;;;;;3.33;3.33;;;;;15.09;56.12;99832.13;5078399;27;45602;-63
2022/04/12 01:14:13;;;;;;;;;4.00;4.00;;;;;15.08;55.49;99833.91;5077298;27;45370;-63
2022/04/12 01:16:39;;;;;;;;;5.33;5.33;;;;;15.06;55.43;99835.81;5078400;27;45371;-65
2022/04/12 01:19:04;;;;;;;;;4.00;4.00;;;;;14.99;55.73;99832.75;5078169;27;50624;-63
2022/04/12 01:21:35;;;;;;;;;5.33;5.33;;;;;15.00;55.57;99834.41;5077953;28;48961;-62
2022/04/12 01:24:05;;;;;;;;;4.00;4.00;;;;;14.96;56.29;99848.84;5077827;28;45441;-63
2022/04/12 01:26:32;;;;;;;;;5.67;4.67;;;;;14.95;56.29;99849.75;5076645;28;45426;-65
2022/04/12 01:28:58;;;;;;;;;5.00;4.00;;;;;14.93;56.29;99838.41;5078024;27;45536;-64
2022/04/12 01:31:25;;;;;;;;;5.33;5.33;;;;;14.93;56.10;99838.41;5077615;28;45544;-63
2022/04/12 01:33:51;;;;;;;;;5.67;5.67;;;;;14.92;55.78;99839.38;5077812;28;45515;-64
2022/04/12 01:36:16;;;;;;;;;7.00;5.67;;;;;14.93;56.44;99835.75;5078012;27;45567;-61
2022/04/12 01:38:41;;;;;;;;;5.00;4.00;;;;;14.92;55.92;99830.59;5076670;28;45453;-62
2022/04/12 01:41:07;;;;;;;;;5.00;5.00;;;;;14.88;56.47;99829.06;5077673;28;46131;-63
2022/04/12 01:43:32;;;;;;;;;5.00;4.00;;;;;14.88;56.51;99845.81;5077843;28;45466;-64
2022/04/12 01:45:57;;;;;;;;;6.67;6.33;;;;;14.85;56.70;99838.06;5077976;28;45489;-63
2022/04/12 01:48:28;;;;;;;;;5.67;4.33;;;;;14.87;56.35;99849.41;5076855;28;45399;-64
2022/04/12 01:50:53;;;;;;;;;6.33;5.67;;;;;14.85;57.07;99858.41;5077506;28;45450;-63
2022/04/12 01:53:18;;;;;;;;;3.00;3.00;;;;;14.85;56.20;99867.19;5077572;27;45462;-62
2022/04/12 01:55:44;;;;;;;;;4.67;4.67;;;;;14.87;56.73;99867.09;5077702;28;45445;-65
2022/04/12 01:58:09;;;;;;;;;4.00;4.00;;;;;14.86;56.60;99866.25;5077620;28;45381;-62
2022/04/12 02:00:36;;;;;;;;;4.00;4.00;;;;;14.85;56.83;99856.59;5077328;28;45577;-64
2022/04/12 02:03:02;;;;;;;;;3.67;3.67;;;;;14.85;56.18;99855.75;5076638;28;45505;-63
2022/04/12 02:05:27;;;;;;;;;5.00;5.00;;;;;14.85;56.03;99851.31;5077491;27;45372;-65
2022/04/12 02:07:53;;;;;;;;;6.00;5.33;;;;;14.82;56.03;99851.50;5077540;27;45433;-65
2022/04/12 02:10:21;;;;;;;;;4.33;4.33;;;;;14.82;56.34;99848.88;5076081;28;47947;-64
2022/04/12 02:12:46;;;;;;;;;4.00;4.00;;;;;14.80;55.74;99840.16;5077384;28;45509;-65
2022/04/12 02:15:12;;;;;;;;;6.33;5.00;;;;;14.77;55.53;99845.66;5077580;27;45776;-65
2022/04/12 02:17:37;;;;;;;;;6.00;6.00;;;;;14.76;56.33;99844.81;5077264;28;45460;-65
2022/04/12 02:20:03;;;;;;;;;6.00;4.33;;;;;14.71;55.62;99816.94;5077206;28;45551;-66
2022/04/12 02:22:28;;;;;;;;;5.00;5.00;;;;;14.73;56.44;99820.34;5076983;28;45531;-62
2022/04/12 02:24:53;;;;;;;;;7.67;6.00;;;;;14.74;55.92;99822.88;5077147;28;45918;-64
2022/04/12 02:27:19;;;;;;;;;4.67;4.00;;;;;14.71;55.96;99832.84;5077265;28;45579;-63
2022/04/12 02:29:44;;;;;;;;;4.33;4.33;;;;;14.64;56.74;99827.09;5076661;28;56474;-62
2022/04/12 02:32:09;;;;;;;;;6.00;6.00;;;;;14.67;56.64;99829.53;5076925;28;45548;-63
2022/04/12 02:34:35;;;;;;;;;4.33;4.33;;;;;14.64;56.19;99827.09;5076656;28;49057;-65
2022/04/12 02:37:00;;;;;;;;;5.33;4.33;;;;;14.66;56.31;99841.06;5077213;28;45412;-66
2022/04/12 02:39:26;;;;;;;;;5.00;5.00;;;;;14.63;56.22;99841.25;5076723;28;46009;-63
2022/04/12 02:41:51;;;;;;;;;7.00;5.00;;;;;14.60;56.28;99835.31;5076922;28;45448;-66
2022/04/12 02:44:17;;;;;;;;;4.67;4.00;;;;;14.60;56.27;99835.31;5076767;28;45437;-63
2022/04/12 02:46:42;;;;;;;;;7.00;5.33;;;;;14.61;56.56;99835.22;5076978;28;45369;-65
2022/04/12 02:49:08;;;;;;;;;4.00;4.00;;;;;14.60;56.45;99840.63;5076235;27;45431;-66
2022/04/12 02:51:33;;;;;;;;;6.00;4.00;;;;;14.57;56.40;99850.44;5076946;28;45477;-64
2022/04/12 02:53:59;;;;;;;;;6.33;5.00;;;;;14.54;56.34;99836.56;5076738;28;45790;-61
2022/04/12 02:56:24;;;;;;;;;4.33;4.33;;;;;14.55;56.38;99830.31;5076872;28;45373;-64
2022/04/12 02:58:50;;;;;;;;;4.33;4.33;;;;;14.56;56.23;99837.31;5076554;28;45343;-65
2022/04/12 03:01:15;;;;;;;;;5.33;5.33;;;;;14.57;56.61;99833.72;5076537;28;45322;-64
2022/04/12 03:03:40;;;;;;;;;5.00;5.00;;;;;14.57;56.30;99836.38;5076752;28;45362;-66
2022/04/12 03:06:06;;;;;;;;;5.00;5.00;;;;;14.55;55.42;99827.69;5076438;28;46065;-64
2022/04/12 03:08:31;;;;;;;;;5.00;5.00;;;;;14.53;55.35;99819.84;5076515;28;45367;-66
2022/04/12 03:10:56;;;;;;;;;4.67;4.67;;;;;14.51;55.61;99805.00;5076255;28;48330;-66
2022/04/12 03:13:22;;;;;;;;;6.00;6.00;;;;;14.44;55.16;99804.53;5076365;28;45442;-65
2022/04/12 03:15:51;;;;;;;;;4.67;4.67;;;;;14.34;55.73;99788.38;5076515;28;45484;-65
2022/04/12 03:18:17;;;;;;;;;4.00;4.00;;;;;14.41;55.95;99794.13;5075956;28;46029;-65
2022/04/12 03:20:43;;;;;;;;;4.33;4.33;;;;;14.35;55.50;99792.75;5076066;28;45410;-65
2022/04/12 03:23:08;;;;;;;;;5.33;5.00;;;;;14.34;55.24;99798.94;5076087;28;45410;-65
2022/04/12 03:25:34;;;;;;;;;8.00;7.00;;;;;14.31;56.16;99799.16;5076077;28;45565;-64
2022/04/12 03:28:00;;;;;;;;;5.67;5.67;;;;;14.30;56.18;99799.28;5075963;28;47394;-63
2022/04/12 03:30:26;;;;;;;;;5.00;5.00;;;;;14.31;55.83;99801.81;5076268;28;45465;-63
2022/04/12 03:32:51;;;;;;;;;3.67;3.67;;;;;14.26;56.18;99792.47;5076152;28;45489;-64
2022/04/12 03:35:16;;;;;;;;;5.00;5.00;;;;;14.29;55.89;99794.91;5076220;28;45428;-63
2022/04/12 03:37:41;;;;;;;;;4.00;4.00;;;;;14.29;56.04;99801.06;5076004;28;46194;-62
2022/04/12 03:40:07;;;;;;;;;4.00;4.00;;;;;14.25;56.39;99804.00;5076094;28;45587;-64
2022/04/12 03:42:32;;;;;;;;;6.67;5.67;;;;;14.29;56.01;99827.53;5076073;27;45534;-64
2022/04/12 03:44:58;;;;;;;;;5.00;5.00;;;;;14.29;55.44;99819.59;5076027;28;45693;-63
2022/04/12 03:47:23;;;;;;;;;7.00;5.00;;;;;14.29;55.68;99824.88;5075767;28;46178;-63
2022/04/12 03:49:48;;;;;;;;;3.67;3.67;;;;;14.30;55.56;99829.22;5076017;28;45437;-66
2022/04/12 03:52:14;;;;;;;;;5.00;5.00;;;;;14.26;55.10;99818.91;5076172;28;45510;-65
2022/04/12 03:54:39;;;;;;;;;4.00;3.00;;;;;14.29;55.13;99824.88;5076147;28;45485;-64
2022/04/12 03:57:04;;;;;;;;;4.00;4.00;;;;;14.27;54.58;99824.13;5075850;28;45941;-64
2022/04/12 03:59:30;;;;;;;;;4.67;4.33;;;;;14.25;54.66;99807.50;5075433;28;45609;-64
2022/04/12 04:01:55;;;;;;;;;4.33;4.33;;;;;14.32;54.12;99816.75;5076023;28;45433;-62
2022/04/12 04:04:21;;;;;;;;;4.00;4.00;;;;;14.27;54.44;99805.59;5075830;28;45647;-62
2022/04/12 04:06:46;;;;;;;;;4.33;4.33;;;;;14.22;53.69;99798.91;5075491;28;46017;-63
2022/04/12 04:09:12;;;;;;;;;3.00;2.33;;;;;14.30;53.59;99804.56;5075609;28;45454;-64
2022/04/12 04:11:42;;;;;;;;;5.00;3.67;;;;;14.30;53.39;99808.06;5075780;28;45378;-64
2022/04/12 04:14:09;;;;;;;;;4.00;4.00;;;;;14.23;53.48;99808.53;5075739;28;45449;-63
2022/04/12 04:16:35;;;;;;;;;5.67;4.00;;;;;14.23;53.47;99804.09;5073571;28;46224;-65
2022/04/12 04:19:00;;;;;;;;;3.33;3.33;;;;;14.24;53.38;99813.75;5075454;27;45458;-66
2022/04/12 04:21:25;;;;;;;;;4.00;4.00;;;;;14.24;52.54;99812.84;5075290;28;45442;-62
2022/04/12 04:23:54;;;;;;;;;4.33;4.00;;;;;14.17;53.53;99819.50;5075204;28;45579;-63
2022/04/12 04:26:19;;;;;;;;;3.00;3.00;;;;;14.20;53.21;99822.78;5074741;28;46320;-62
2022/04/12 04:28:45;;;;;;;;;2.67;2.67;;;;;14.22;53.32;99823.56;5075149;28;45367;-63
2022/04/12 04:31:11;;;;;;;;;4.33;3.33;;;;;14.22;53.40;99830.66;5075404;28;45509;-63
2022/04/12 04:33:36;;;;;;;;;3.00;3.00;;;;;14.19;53.47;99823.75;5075407;28;45442;-63
2022/04/12 04:36:02;;;;;;;;;4.00;3.67;;;;;14.22;52.64;99830.66;5075194;28;46126;-62
2022/04/12 04:38:28;;;;;;;;;3.00;3.00;;;;;14.20;53.01;99830.72;5075063;28;45556;-65
2022/04/12 04:40:53;;;;;;;;;5.67;4.67;;;;;14.15;53.56;99831.00;5075304;27;45442;-66
2022/04/12 04:43:18;;;;;;;;;4.00;4.00;;;;;14.16;52.77;99829.25;5075319;28;45563;-64
2022/04/12 04:45:44;;;;;;;;;4.00;3.67;;;;;14.17;53.45;99840.66;5075172;28;46252;-66
2022/04/12 04:48:10;;;;;;;;;5.00;5.00;;;;;14.14;52.91;99834.59;5074830;28;45504;-65
2022/04/12 04:50:36;;;;;;;;;3.00;3.00;;;;;14.14;53.16;99844.34;5075193;28;45443;-65
2022/04/12 04:53:04;;;;;;;;;4.00;4.00;;;;;14.13;52.99;99846.16;5074996;27;45687;-64
2022/04/12 04:55:31;;;;;;;;;4.33;4.00;;;;;14.12;53.35;99849.72;5074942;28;47048;-66
2022/04/12 04:57:59;;;;;;;;;5.00;5.00;;;;;14.12;53.23;99856.81;5074839;28;45454;-64
2022/04/12 05:00:25;;;;;;;;;6.33;4.00;;;;;14.10;53.62;99840.16;5074774;27;45480;-64
2022/04/12 05:02:54;;;;;;;;;5.00;5.00;;;;;14.10;52.93;99850.75;5074661;28;45391;-63
2022/04/12 05:05:20;;;;;;;;;3.00;3.00;;;;;14.09;53.65;99852.56;5074656;28;46393;-65
2022/04/12 05:07:49;;;;;;;;;5.33;5.00;;;;;14.07;53.19;99853.59;5074971;27;45530;-65
2022/04/12 05:10:22;;;;;;;;;5.00;5.00;;;;;14.05;53.10;99860.75;5074894;27;45458;-65
2022/04/12 05:12:48;;;;;;;;;4.00;4.00;;;;;13.98;53.52;99848.88;5074733;27;45452;-64
2022/04/12 05:15:14;;;;;;;;;5.00;5.00;;;;;14.01;53.70;99865.41;5074481;28;45515;-65
2022/04/12 05:17:40;;;;;;;;;6.33;6.33;;;;;13.98;53.27;99875.31;5074729;28;45436;-65
2022/04/12 05:20:07;;;;;;;;;6.00;6.00;;;;;14.00;53.33;99882.22;5073464;28;45448;-65
2022/04/12 05:22:33;;;;;;;;;4.33;4.33;;;;;13.99;53.44;99879.66;5074889;28;45442;-62
2022/04/12 05:24:58;;;;;;;;;4.00;4.00;;;;;13.96;53.67;99866.63;5074405;28;45381;-63
2022/04/12 05:27:24;;;;;;;;;6.00;6.00;;;;;13.95;53.70;99872.88;5074625;28;45492;-65
2022/04/12 05:29:49;;;;;;;;;4.67;4.67;;;;;13.95;53.61;99875.50;5074675;28;45369;-65
2022/04/12 05:32:15;;;;;;;;;5.50;5.50;;;;;13.94;53.77;99879.91;5074815;28;45441;-66
2022/04/12 05:34:40;;;;;;;;;5.00;5.00;;;;;13.93;54.00;99888.81;5074344;28;45387;-63
2022/04/12 05:37:06;;;;;;;;;6.33;6.33;;;;;13.91;54.10;99880.13;5075643;28;45486;-65
2022/04/12 05:39:32;;;;;;;;;5.00;5.00;;;;;13.86;54.41;99861.91;5077950;28;45528;-62
2022/04/12 05:42:01;;;;;;;;;6.33;5.67;;;;;13.92;53.92;99868.63;5078011;28;45463;-63
2022/04/12 05:44:33;;;;;;;;;9.33;7.33;;;;;13.93;53.88;99878.22;5077885;28;45484;-63
2022/04/12 05:46:59;;;;;;;;;5.00;4.00;;;;;13.93;54.12;99881.72;5077411;28;45437;-63
2022/04/12 05:49:24;;;;;;;;;6.00;6.00;;;;;13.80;53.83;99870.19;5077714;28;45382;-62
2022/04/12 05:51:50;;;;;;;;;4.67;4.67;;;;;13.95;53.67;99886.09;5076521;28;45410;-63
2022/04/12 05:54:15;;;;;;;;;6.00;6.00;;;;;13.94;53.58;99887.84;5077441;27;45500;-63
2022/04/12 05:56:40;;;;;;;;;3.00;3.00;;;;;13.96;53.47;99893.06;5077497;28;45448;-63
2022/04/12 05:59:06;;;;;;;;;4.00;4.00;;;;;13.98;53.37;99893.81;5077756;28;45478;-63
2022/04/12 06:01:32;;;;;;;;;5.00;5.00;;;;;13.95;53.54;99891.38;5077452;28;45483;-66
2022/04/12 06:03:57;;;;;;;;;6.00;6.00;;;;;13.97;53.32;99894.75;5077239;28;46132;-65
2022/04/12 06:06:22;;;;;;;;;5.00;5.00;;;;;13.99;53.18;99898.16;5076043;28;45427;-64
2022/04/12 06:08:48;;;;;;;;;5.67;5.67;;;;;13.99;53.16;99912.22;5077411;28;45427;-64
2022/04/12 06:11:13;;;;;;;;;4.33;4.33;;;;;14.01;53.10;99909.50;5077368;28;45619;-63
2022/04/12 06:13:38;;;;;;;;;6.67;6.67;;;;;14.03;53.41;99903.16;5077336;28;46177;-65
2022/04/12 06:16:04;;;;;;;;;4.00;4.00;;;;;14.03;52.88;99904.97;5077320;28;45370;-65
2022/04/12 06:18:29;;;;;;;;;4.67;4.67;;;;;13.98;52.67;99891.19;5077446;28;45422;-66
2022/04/12 06:20:54;;;;;;;;;4.00;4.00;;;;;14.02;52.44;99903.25;5077590;28;45444;-64
2022/04/12 06:23:20;;;;;;;;;5.00;5.00;;;;;14.00;52.72;99907.81;5077050;28;45466;-63
2022/04/12 06:25:45;;;;;;;;;5.67;5.67;;;;;14.01;52.32;99913.00;5077285;28;45401;-63
2022/04/12 06:28:10;;;;;;;;;5.67;4.33;;;;;13.95;52.51;99902.78;5077384;27;45414;-62
2022/04/12 06:30:36;;;;;;;;;5.00;5.00;;;;;14.01;52.20;99912.13;5077191;28;45445;-63
2022/04/12 06:33:01;;;;;;;;;5.67;4.67;;;;;14.00;52.37;99926.31;5077069;28;46485;-62
2022/04/12 06:35:27;;;;;;;;;6.00;6.00;;;;;14.01;52.69;99926.22;5076706;28;45498;-62
2022/04/12 06:37:53;;;;;;;;;7.00;7.00;;;;;14.02;52.33;99934.97;5077083;28;45424;-65
2022/04/12 06:40:21;;;;;;;;;7.33;7.00;;;;;14.00;52.54;99932.44;5075562;28;45584;-65
2022/04/12 06:42:47;;;;;;;;;6.00;6.00;;;;;14.03;52.54;99948.13;5076377;28;46112;-65
2022/04/12 06:45:13;;;;;;;;;6.67;5.00;;;;;14.08;52.03;99959.28;5076759;28;45421;-63
2022/04/12 06:47:39;;;;;;;;;9.00;6.33;;;;;14.05;52.54;99953.31;5076320;27;45450;-62
2022/04/12 06:50:05;;;;;;;;;3.33;3.00;;;;;14.05;52.08;99961.22;5076952;28;45383;-65
2022/04/12 06:52:32;;;;;;;;;4.00;4.00;;;;;14.04;51.96;99959.53;5076572;28;46307;-63
2022/04/12 06:54:58;;;;;;;;;5.33;5.33;;;;;14.06;52.23;99963.81;5076338;28;45448;-65
2022/04/12 06:57:23;;;;;;;;;5.00;5.00;;;;;14.06;51.66;99973.53;5076570;27;45461;-65
2022/04/12 06:59:49;;;;;;;;;4.00;4.00;;;;;14.04;51.64;99980.69;5076292;28;45529;-64
2022/04/12 07:02:14;;;;;;;;;4.33;4.33;;;;;14.09;51.72;99983.91;5076448;28;45440;-65
2022/04/12 07:04:39;;;;;;;;;4.67;4.67;;;;;14.03;51.50;99985.13;5076166;28;45424;-62
2022/04/12 07:07:05;;;;;;;;;4.00;4.00;;;;;13.99;51.53;99985.41;5076613;28;45446;-64
2022/04/12 07:09:31;;;;;;;;;4.00;4.00;;;;;13.98;52.08;99973.97;5076478;28;45390;-65
2022/04/12 07:11:57;;;;;;;;;5.67;5.67;;;;;14.01;51.52;99992.31;5076227;28;45989;-62
2022/04/12 07:14:23;;;;;;;;;5.00;5.00;;;;;14.06;51.49;99999.97;5076487;28;45378;-63
2022/04/12 07:16:49;;;;;;;;;4.00;4.00;;;;;14.12;51.62;100012.81;5076338;27;45445;-63
2022/04/12 07:19:15;;;;;;;;;5.00;4.67;;;;;14.19;52.07;100008.88;5076352;28;45457;-62
2022/04/12 07:21:40;;;;;;;;;4.00;4.00;;;;;14.23;51.19;100007.72;5076300;27;45435;-62
2022/04/12 07:24:07;;;;;;;;;3.00;3.00;;;;;14.23;51.30;99998.97;5075961;28;45422;-65
2022/04/12 07:26:33;;;;;;;;;5.00;4.00;;;;;14.23;51.11;100009.53;5076399;28;45422;-65
2022/04/12 07:29:00;;;;;;;;;5.00;4.00;;;;;14.23;50.82;100005.09;5075996;27;45578;-64
2022/04/12 07:31:29;;;;;;;;;5.00;4.00;;;;;14.25;51.04;100011.16;5076046;28;46144;-65
2022/04/12 07:33:54;;;;;;;;;5.00;4.67;;;;;14.33;50.49;100019.47;5075857;27;45340;-64
2022/04/12 07:36:20;;;;;;;;;5.33;5.00;;;;;14.39;50.65;100017.41;5076109;27;45583;-62
2022/04/12 07:38:45;;;;;;;;;3.67;3.67;;;;;14.44;51.08;100010.03;5075876;28;45394;-65
2022/04/12 07:41:11;;;;;;;;;3.33;3.33;;;;;14.47;50.46;100008.03;5075961;28;45314;-65
2022/04/12 07:43:37;;;;;;;;;3.00;3.00;;;;;14.44;50.53;100005.59;5075807;28;45448;-63
2022/04/12 07:46:03;;;;;;;;;3.00;3.00;;;;;14.50;50.29;100001.72;5075798;28;45417;-62
2022/04/12 07:48:28;;;;;;;;;4.67;4.67;;;;;14.54;49.74;99995.34;5074376;28;45494;-64
2022/04/12 07:50:54;;;;;;;;;4.00;4.00;;;;;14.60;49.68;100002.06;5075412;28;45438;-65
2022/04/12 07:53:20;;;;;;;;;4.00;4.00;;;;;14.57;49.65;100005.72;5075371;28;45460;-61
2022/04/12 07:55:45;;;;;;;;;6.33;5.00;;;;;14.61;49.65;100003.75;5075474;28;45441;-63
2022/04/12 07:58:11;;;;;;;;;4.00;3.00;;;;;14.63;49.78;100001.84;5075415;28;45429;-65
2022/04/12 08:00:36;;;;;;;;;4.00;4.00;;;;;14.71;50.44;99997.78;5074030;28;45456;-64
2022/04/12 08:03:01;;;;;;;;;4.00;4.00;;;;;14.76;50.00;100001.00;5075459;28;45542;-62
2022/04/12 08:05:27;;;;;;;;;4.33;3.67;;;;;14.78;49.27;99991.16;5075714;28;45470;-63
2022/04/12 08:07:52;;;;;;;;;3.00;3.00;;;;;14.80;49.17;99991.94;5075347;28;45441;-65
2022/04/12 08:10:19;;;;;;;;;6.33;4.67;;;;;14.89;49.10;99990.50;5075228;28;45438;-63
2022/04/12 08:12:46;;;;;;;;;3.67;3.67;;;;;14.93;49.04;99981.41;5073783;28;45453;-65
2022/04/12 08:15:15;;;;;;;;;4.00;4.00;;;;;14.97;49.30;99984.72;5075527;27;45448;-64
2022/04/12 08:17:41;;;;;;;;;5.67;4.00;;;;;15.05;48.71;99985.09;5075225;28;45611;-64
2022/04/12 08:20:09;;;;;;;;;4.33;4.33;;;;;15.09;47.92;99996.31;5075228;28;46025;-65
2022/04/12 08:22:35;;;;;;;;;3.00;3.00;;;;;15.11;47.77;99997.91;5074958;27;45383;-63
2022/04/12 08:25:00;;;;;;;;;5.00;5.00;;;;;15.15;48.09;99991.50;5075331;27;45434;-64
2022/04/12 08:27:26;;;;;;;;;3.33;3.00;;;;;15.16;49.23;99987.88;5075404;28;45635;-63
2022/04/12 08:29:52;;;;;;;;;5.00;3.00;;;;;15.22;48.08;99992.78;5074938;28;45624;-65
2022/04/12 08:32:17;;;;;;;;;5.00;3.00;;;;;15.29;48.49;99987.97;5075159;28;45375;-65
2022/04/12 08:34:43;;;;;;;;;5.00;4.67;;;;;15.37;47.86;99995.41;5075409;28;45412;-65
2022/04/12 08:37:10;;;;;;;;;4.00;3.00;;;;;15.38;48.27;99978.56;5075333;28;45426;-62
2022/04/12 08:39:36;;;;;;;;;3.00;3.00;;;;;15.43;48.63;99982.59;5074878;27;45527;-64
2022/04/12 08:42:03;;;;;;;;;4.00;3.00;;;;;15.48;47.35;99979.66;5075018;27;45468;-63
2022/04/12 08:44:30;;;;;;;;;5.67;5.67;;;;;15.59;47.33;99992.19;5075251;28;45464;-62
2022/04/12 08:46:56;;;;;;;;;4.67;4.67;;;;;15.64;47.61;99990.09;5074851;28;45441;-64
2022/04/12 08:49:26;;;;;;;;;4.67;4.67;;;;;15.71;47.78;99982.59;5074816;28;45448;-65
2022/04/12 08:51:52;;;;;;;;;4.33;4.33;;;;;15.77;47.51;99987.50;5074889;28;45446;-65
2022/04/12 08:54:18;;;;;;;;;5.33;5.33;;;;;15.85;47.08;99988.69;5073578;28;45530;-65
2022/04/12 08:56:48;;;;;;;;;3.67;3.67;;;;;15.81;46.80;99968.63;5074866;27;45566;-64
2022/04/12 08:59:15;;;;;;;;;10.33;5.00;;;;;15.92;46.37;99988.28;5074453;27;46314;-65
2022/04/12 09:01:41;;;;;;;;;3.00;3.00;;;;;15.96;46.90;99993.28;5074735;27;45446;-64
2022/04/12 09:04:08;;;;;;;;;2.67;2.67;;;;;16.02;46.77;99992.03;5074636;27;45417;-65
2022/04/12 09:06:34;;;;;;;;;8.00;6.33;;;;;16.05;45.53;99992.66;5074805;28;45393;-63
2022/04/12 09:09:15;;;;;;;;;4.67;3.67;;;;;16.13;45.16;99997.44;5074393;28;46397;-65
2022/04/12 09:11:41;;;;;;;;;3.00;3.00;;;;;16.16;45.13;99985.78;5076865;27;45413;-66
2022/04/12 09:14:11;;;;;;;;;3.00;3.00;;;;;16.21;45.12;99988.97;5078644;27;45497;-65
2022/04/12 09:16:45;;;;;;;;;2.00;2.00;;;;;16.25;45.18;99982.47;5078285;28;45605;-67
2022/04/12 09:19:11;;;;;;;;;2.00;2.00;;;;;16.31;44.91;99993.53;5077975;28;46116;-63
2022/04/12 09:21:45;;;;;;;;;4.00;2.00;;;;;16.35;44.80;99978.22;5078189;27;45347;-66
2022/04/12 09:24:21;;;;;;;;;2.67;2.67;;;;;16.44;45.31;99988.22;5078012;27;45438;-65
2022/04/12 09:26:57;;;;;;;;;2.00;2.00;;;;;16.45;44.93;99973.16;5077937;27;45577;-63
2022/04/12 09:29:27;;;;;;;;;2.33;2.00;;;;;16.51;44.79;99984.16;5077811;28;45462;-63
2022/04/12 09:31:56;;;;;;;;;2.00;2.00;;;;;16.60;44.78;99976.50;5077920;27;45405;-64
2022/04/12 09:34:23;;;;;;;;;2.00;2.00;;;;;16.60;44.04;99965.91;5078184;27;45465;-65
2022/04/12 09:36:49;;;;;;;;;3.00;3.00;;;;;16.67;44.55;99980.44;5077804;27;45540;-64
2022/04/12 09:39:19;;;;;;;;;1.33;1.33;;;;;16.68;44.12;99975.00;5077582;27;45412;-64
2022/04/12 09:41:47;;;;;;;;;3.33;2.33;;;;;16.72;44.74;99984.47;5077725;28;45443;-66
2022/04/12 09:44:17;;;;;;;;;2.00;2.00;;;;;16.76;44.58;99975.34;5077869;27;45502;-63
2022/04/12 09:46:43;;;;;;;;;3.00;3.00;;;;;16.80;44.76;99976.00;5077750;27;45493;-65
2022/04/12 09:49:09;;;;;;;;;2.00;2.00;;;;;16.85;44.49;99973.03;5077307;27;45704;-64
2022/04/12 09:51:36;;;;;;;;;2.00;2.00;;;;;16.81;44.41;99942.31;5077414;28;45534;-68
2022/04/12 09:54:03;;;;;;;;;2.00;1.00;;;;;16.81;44.07;99943.16;5077425;27;45332;-63
2022/04/12 09:56:30;;;;;;;;;2.00;2.00;;;;;16.93;44.24;99944.94;5077512;27;45506;-64
2022/04/12 09:58:58;;;;;;;;;5.00;3.67;;;;;16.99;44.25;99959.59;5077132;27;45424;-64
2022/04/12 10:01:24;;;;;;;;;5.00;5.00;;;;;17.02;44.68;99964.69;5077092;28;45543;-63
2022/04/12 10:03:54;;;;;;;;;4.67;3.00;;;;;17.06;44.65;99976.78;5077241;27;45405;-62
2022/04/12 10:06:26;;;;;;;;;2.00;2.00;;;;;17.08;44.41;99971.34;5077283;27;45577;-64
2022/04/12 10:08:54;;;;;;;;;5.67;2.33;;;;;16.97;43.80;99951.72;5075821;28;47433;-64
2022/04/12 10:11:20;;;;;;;;;3.00;3.00;;;;;17.13;44.46;99966.56;5077004;28;45469;-63
2022/04/12 10:13:46;;;;;;;;;4.00;3.33;;;;;17.15;44.64;99956.66;5076850;27;45441;-64
2022/04/12 10:16:15;;;;;;;;;3.67;3.67;;;;;17.16;44.44;99953.88;5077087;27;45512;-63
2022/04/12 10:18:41;;;;;;;;;2.00;2.00;;;;;17.19;43.98;99940.41;5076855;28;45500;-62
2022/04/12 10:21:07;;;;;;;;;2.33;2.33;;;;;17.22;44.82;99952.59;5077112;27;45460;-65
2022/04/12 10:23:34;;;;;;;;;2.00;2.00;;;;;17.24;44.32;99937.38;5075997;27;45475;-62
2022/04/12 10:26:00;;;;;;;;;2.33;2.00;;;;;17.27;43.96;99938.97;5076739;28;45537;-62
2022/04/12 10:28:29;;;;;;;;;4.00;3.00;;;;;17.32;44.13;99928.84;5076729;27;46709;-63
2022/04/12 10:31:24;;;;;;;;;4.00;4.00;;;;;17.33;44.56;99915.47;5076801;27;45386;-65
2022/04/12 10:34:03;;;;;;;;;2.00;2.00;;;;;17.34;44.73;99914.47;5071761;27;45621;-62
2022/04/12 10:36:53;;;;;;;;;4.00;4.00;;;;;17.39;44.32;99916.81;5075384;28;45499;-64
2022/04/12 10:39:21;;;;;;;;;4.00;3.00;;;;;17.31;44.22;99889.94;5075016;28;45690;-66
2022/04/12 10:41:50;;;;;;;;;4.00;4.00;;;;;17.42;44.44;99927.22;5076643;27;45474;-65
2022/04/12 10:44:20;;;;;;;;;12.00;11.67;;;;;17.51;44.73;99936.28;5076419;27;45536;-65
2022/04/12 10:46:47;;;;;;;;;3.00;3.00;;;;;17.55;44.87;99941.28;5076513;27;45611;-63
2022/04/12 10:49:13;;;;;;;;;2.67;2.00;;;;;17.61;44.64;99939.97;5076231;27;45510;-62
2022/04/12 10:51:39;;;;;;;;;4.00;4.00;;;;;17.66;44.52;99937.81;5076228;27;45463;-65
2022/04/12 10:54:09;;;;;;;;;3.00;3.00;;;;;17.69;44.72;99940.22;5076488;28;45390;-64
2022/04/12 10:56:35;;;;;;;;;2.67;2.67;;;;;17.74;45.05;99948.72;5075112;28;45567;-65
2022/04/12 10:59:00;;;;;;;;;4.33;4.33;;;;;17.77;44.58;99937.00;5076130;28;46949;-63
2022/04/12 11:01:31;;;;;;;;;2.67;2.00;;;;;17.80;44.60;99942.97;5076140;28;45541;-66
2022/04/12 11:03:59;;;;;;;;;3.00;3.00;;;;;17.85;44.32;99962.06;5076170;28;45519;-65
2022/04/12 11:06:29;;;;;;;;;4.00;4.00;;;;;17.88;44.30;99964.50;5076291;27;45407;-63
2022/04/12 11:09:12;;;;;;;;;4.00;1.33;;;;;17.87;44.11;99965.47;5076296;27;45445;-63
2022/04/12 11:11:41;;;;;;;;;4.67;4.00;;;;;17.93;44.30;99987.25;5076093;27;45384;-66
2022/04/12 11:14:24;;;;;;;;;3.00;3.00;;;;;18.01;44.71;99993.69;5076024;27;45417;-65
2022/04/12 11:16:53;;;;;;;;;2.00;2.00;;;;;18.05;44.01;99994.28;5075945;28;45445;-63
2022/04/12 11:19:21;;;;;;;;;4.33;3.00;;;;;18.04;44.20;99979.31;5073827;28;45514;-63
2022/04/12 11:21:54;;;;;;;;;3.33;3.33;;;;;18.08;43.82;99997.59;5075863;27;45467;-66
2022/04/12 11:24:24;;;;;;;;;4.00;4.00;;;;;18.07;44.14;99984.38;5076049;27;45394;-65
2022/04/12 11:27:09;;;;;;;;;6.00;4.00;;;;;18.12;43.97;99989.38;5074372;28;45474;-65
2022/04/12 11:29:37;;;;;;;;;5.67;4.00;;;;;18.12;43.85;99998.19;5074497;28;46274;-63
2022/04/12 11:32:04;;;;;;;;;4.00;3.00;;;;;18.19;44.22;99988.78;5074746;28;45491;-65